sensor_id;sensor_type;location;lat;lon;timestamp;temperature;humidity
10891;DHT22;5498;50.928;11.598;2023-02-16T00:00:20;3.60;85.50
10891;DHT22;5498;50.928;11.598;2023-02-16T00:03:23;3.60;85.80
10891;DHT22;5498;50.928;11.598;2023-02-16T00:06:27;3.50;85.70
10891;DHT22;5498;50.928;11.598;2023-02-16T00:09:29;3.40;86.00
10891;DHT22;5498;50.928;11.598;2023-02-16T00:12:32;3.30;86.00
10891;DHT22;5498;50.928;11.598;2023-02-16T00:15:52;3.30;86.30
10891;DHT22;5498;50.928;11.598;2023-02-16T00:18:53;3.20;86.30
10891;DHT22;5498;50.928;11.598;2023-02-16T00:21:57;3.20;86.70
10891;DHT22;5498;50.928;11.598;2023-02-16T00:25:00;3.20;86.90
10891;DHT22;5498;50.928;11.598;2023-02-16T00:28:06;3.20;87.00
10891;DHT22;5498;50.928;11.598;2023-02-16T00:31:16;3.20;87.20
10891;DHT22;5498;50.928;11.598;2023-02-16T00:34:26;3.10;87.10
10891;DHT22;5498;50.928;11.598;2023-02-16T00:37:29;3.10;87.20
10891;DHT22;5498;50.928;11.598;2023-02-16T00:40:31;3.10;87.10
10891;DHT22;5498;50.928;11.598;2023-02-16T00:43:35;3.10;87.50
10891;DHT22;5498;50.928;11.598;2023-02-16T00:46:37;3.10;87.30
10891;DHT22;5498;50.928;11.598;2023-02-16T00:49:39;3.10;87.30
10891;DHT22;5498;50.928;11.598;2023-02-16T00:52:41;3.10;87.20
10891;DHT22;5498;50.928;11.598;2023-02-16T00:55:45;3.10;87.60
10891;DHT22;5498;50.928;11.598;2023-02-16T00:58:49;3.10;87.70
10891;DHT22;5498;50.928;11.598;2023-02-16T01:01:53;3.10;88.00
10891;DHT22;5498;50.928;11.598;2023-02-16T01:04:56;3.10;87.60
10891;DHT22;5498;50.928;11.598;2023-02-16T01:07:58;3.10;87.40
10891;DHT22;5498;50.928;11.598;2023-02-16T01:11:18;3.10;87.40
10891;DHT22;5498;50.928;11.598;2023-02-16T01:14:22;3.10;87.50
10891;DHT22;5498;50.928;11.598;2023-02-16T01:17:24;3.10;87.40
10891;DHT22;5498;50.928;11.598;2023-02-16T01:20:27;3.10;87.20
10891;DHT22;5498;50.928;11.598;2023-02-16T01:23:29;3.00;87.10
10891;DHT22;5498;50.928;11.598;2023-02-16T01:26:31;2.90;87.50
10891;DHT22;5498;50.928;11.598;2023-02-16T01:29:39;2.80;87.80
10891;DHT22;5498;50.928;11.598;2023-02-16T01:32:41;2.80;87.80
10891;DHT22;5498;50.928;11.598;2023-02-16T01:35:46;2.80;87.90
10891;DHT22;5498;50.928;11.598;2023-02-16T01:38:49;2.90;88.40
10891;DHT22;5498;50.928;11.598;2023-02-16T01:42:12;2.80;88.50
10891;DHT22;5498;50.928;11.598;2023-02-16T01:45:26;2.70;88.60
10891;DHT22;5498;50.928;11.598;2023-02-16T01:48:32;3.20;89.10
10891;DHT22;5498;50.928;11.598;2023-02-16T01:51:39;2.80;88.50
10891;DHT22;5498;50.928;11.598;2023-02-16T01:54:52;2.70;88.70
10891;DHT22;5498;50.928;11.598;2023-02-16T01:57:59;2.90;88.70
10891;DHT22;5498;50.928;11.598;2023-02-16T02:01:31;2.70;88.20
10891;DHT22;5498;50.928;11.598;2023-02-16T02:04:42;2.70;88.40
10891;DHT22;5498;50.928;11.598;2023-02-16T02:08:12;2.50;89.20
10891;DHT22;5498;50.928;11.598;2023-02-16T02:11:23;2.40;89.60
10891;DHT22;5498;50.928;11.598;2023-02-16T02:14:31;2.70;89.80
10891;DHT22;5498;50.928;11.598;2023-02-16T02:17:37;2.50;89.60
10891;DHT22;5498;50.928;11.598;2023-02-16T02:20:48;2.40;89.40
10891;DHT22;5498;50.928;11.598;2023-02-16T02:24:53;2.40;89.60
10891;DHT22;5498;50.928;11.598;2023-02-16T02:28:09;2.50;89.80
10891;DHT22;5498;50.928;11.598;2023-02-16T02:31:23;2.40;89.80
10891;DHT22;5498;50.928;11.598;2023-02-16T02:34:45;2.60;90.00
10891;DHT22;5498;50.928;11.598;2023-02-16T02:38:06;2.60;90.10
10891;DHT22;5498;50.928;11.598;2023-02-16T02:41:17;2.60;89.60
10891;DHT22;5498;50.928;11.598;2023-02-16T02:44:24;2.40;89.30
10891;DHT22;5498;50.928;11.598;2023-02-16T02:47:37;2.50;89.80
10891;DHT22;5498;50.928;11.598;2023-02-16T02:50:44;2.50;90.00
10891;DHT22;5498;50.928;11.598;2023-02-16T02:54:06;2.30;90.10
10891;DHT22;5498;50.928;11.598;2023-02-16T02:57:30;2.20;90.20
10891;DHT22;5498;50.928;11.598;2023-02-16T03:00:54;2.20;90.30
10891;DHT22;5498;50.928;11.598;2023-02-16T03:03:56;2.20;90.30
10891;DHT22;5498;50.928;11.598;2023-02-16T03:07:01;2.20;90.20
10891;DHT22;5498;50.928;11.598;2023-02-16T03:10:04;2.60;90.40
10891;DHT22;5498;50.928;11.598;2023-02-16T03:13:24;2.10;90.30
10891;DHT22;5498;50.928;11.598;2023-02-16T03:16:33;2.10;90.40
10891;DHT22;5498;50.928;11.598;2023-02-16T03:19:37;2.40;90.50
10891;DHT22;5498;50.928;11.598;2023-02-16T03:22:58;2.10;90.40
10891;DHT22;5498;50.928;11.598;2023-02-16T03:26:20;2.10;90.30
10891;DHT22;5498;50.928;11.598;2023-02-16T03:29:41;2.10;90.30
10891;DHT22;5498;50.928;11.598;2023-02-16T03:32:45;2.00;90.30
10891;DHT22;5498;50.928;11.598;2023-02-16T03:35:47;2.00;90.40
10891;DHT22;5498;50.928;11.598;2023-02-16T03:38:50;2.00;90.40
10891;DHT22;5498;50.928;11.598;2023-02-16T03:41:54;2.00;90.40
10891;DHT22;5498;50.928;11.598;2023-02-16T03:44:57;2.00;90.40
10891;DHT22;5498;50.928;11.598;2023-02-16T03:48:00;2.30;90.50
10891;DHT22;5498;50.928;11.598;2023-02-16T03:51:03;2.00;90.40
10891;DHT22;5498;50.928;11.598;2023-02-16T03:54:05;2.00;90.30
10891;DHT22;5498;50.928;11.598;2023-02-16T03:57:07;2.00;90.20
10891;DHT22;5498;50.928;11.598;2023-02-16T04:00:09;2.20;90.40
10891;DHT22;5498;50.928;11.598;2023-02-16T04:03:14;1.90;90.70
10891;DHT22;5498;50.928;11.598;2023-02-16T04:06:16;1.90;90.40
10891;DHT22;5498;50.928;11.598;2023-02-16T04:09:18;2.10;90.50
10891;DHT22;5498;50.928;11.598;2023-02-16T04:12:19;2.00;90.60
10891;DHT22;5498;50.928;11.598;2023-02-16T04:15:36;1.90;90.60
10891;DHT22;5498;50.928;11.598;2023-02-16T04:18:39;1.70;90.60
10891;DHT22;5498;50.928;11.598;2023-02-16T04:21:41;1.60;90.60
10891;DHT22;5498;50.928;11.598;2023-02-16T04:24:43;1.60;90.90
10891;DHT22;5498;50.928;11.598;2023-02-16T04:27:45;1.60;90.90
10891;DHT22;5498;50.928;11.598;2023-02-16T04:30:49;2.00;91.10
10891;DHT22;5498;50.928;11.598;2023-02-16T04:33:52;1.50;90.90
10891;DHT22;5498;50.928;11.598;2023-02-16T04:36:54;1.50;91.00
10891;DHT22;5498;50.928;11.598;2023-02-16T04:39:56;1.90;91.10
10891;DHT22;5498;50.928;11.598;2023-02-16T04:42:58;2.00;91.00
10891;DHT22;5498;50.928;11.598;2023-02-16T04:46:00;1.50;91.00
10891;DHT22;5498;50.928;11.598;2023-02-16T04:49:03;1.70;91.20
10891;DHT22;5498;50.928;11.598;2023-02-16T04:52:05;1.60;91.20
10891;DHT22;5498;50.928;11.598;2023-02-16T04:55:07;1.90;91.30
10891;DHT22;5498;50.928;11.598;2023-02-16T04:58:10;1.90;91.20
10891;DHT22;5498;50.928;11.598;2023-02-16T05:01:18;2.10;91.20
10891;DHT22;5498;50.928;11.598;2023-02-16T05:04:22;1.70;91.10
10891;DHT22;5498;50.928;11.598;2023-02-16T05:07:24;1.70;91.00
10891;DHT22;5498;50.928;11.598;2023-02-16T05:10:26;2.00;91.30
10891;DHT22;5498;50.928;11.598;2023-02-16T05:13:28;1.60;90.90
10891;DHT22;5498;50.928;11.598;2023-02-16T05:16:44;1.70;91.00
10891;DHT22;5498;50.928;11.598;2023-02-16T05:19:48;1.80;91.00
10891;DHT22;5498;50.928;11.598;2023-02-16T05:22:51;1.50;91.10
10891;DHT22;5498;50.928;11.598;2023-02-16T05:25:53;2.00;91.10
10891;DHT22;5498;50.928;11.598;2023-02-16T05:28:55;1.60;91.00
10891;DHT22;5498;50.928;11.598;2023-02-16T05:31:57;1.60;91.10
10891;DHT22;5498;50.928;11.598;2023-02-16T05:35:01;1.80;91.20
10891;DHT22;5498;50.928;11.598;2023-02-16T05:38:02;1.60;91.20
10891;DHT22;5498;50.928;11.598;2023-02-16T05:41:04;1.60;91.10
10891;DHT22;5498;50.928;11.598;2023-02-16T05:44:07;1.50;91.10
10891;DHT22;5498;50.928;11.598;2023-02-16T05:47:09;1.50;91.20
10891;DHT22;5498;50.928;11.598;2023-02-16T05:50:13;1.50;91.20
10891;DHT22;5498;50.928;11.598;2023-02-16T05:53:15;1.40;91.20
10891;DHT22;5498;50.928;11.598;2023-02-16T05:56:18;1.40;91.30
10891;DHT22;5498;50.928;11.598;2023-02-16T05:59:20;1.40;91.40
10891;DHT22;5498;50.928;11.598;2023-02-16T06:02:22;1.60;91.60
10891;DHT22;5498;50.928;11.598;2023-02-16T06:05:26;1.40;91.50
10891;DHT22;5498;50.928;11.598;2023-02-16T06:08:28;1.30;91.50
10891;DHT22;5498;50.928;11.598;2023-02-16T06:11:30;1.40;91.50
10891;DHT22;5498;50.928;11.598;2023-02-16T06:14:39;1.40;91.40
10891;DHT22;5498;50.928;11.598;2023-02-16T06:17:42;1.40;91.30
10891;DHT22;5498;50.928;11.598;2023-02-16T06:20:46;1.50;91.40
10891;DHT22;5498;50.928;11.598;2023-02-16T06:23:49;1.40;91.70
10891;DHT22;5498;50.928;11.598;2023-02-16T06:26:51;1.40;91.40
10891;DHT22;5498;50.928;11.598;2023-02-16T06:29:53;1.40;91.40
10891;DHT22;5498;50.928;11.598;2023-02-16T06:32:55;1.40;91.30
10891;DHT22;5498;50.928;11.598;2023-02-16T06:35:58;1.70;91.50
10891;DHT22;5498;50.928;11.598;2023-02-16T06:39:00;1.30;91.30
10891;DHT22;5498;50.928;11.598;2023-02-16T06:42:02;1.50;91.50
10891;DHT22;5498;50.928;11.598;2023-02-16T06:45:04;1.30;91.60
10891;DHT22;5498;50.928;11.598;2023-02-16T06:48:06;1.30;91.60
10891;DHT22;5498;50.928;11.598;2023-02-16T06:51:09;1.30;91.40
10891;DHT22;5498;50.928;11.598;2023-02-16T06:54:11;1.30;91.50
10891;DHT22;5498;50.928;11.598;2023-02-16T06:57:13;1.40;91.80
10891;DHT22;5498;50.928;11.598;2023-02-16T07:00:16;1.30;91.80
10891;DHT22;5498;50.928;11.598;2023-02-16T07:03:18;1.40;91.90
10891;DHT22;5498;50.928;11.598;2023-02-16T07:06:22;1.40;91.80
10891;DHT22;5498;50.928;11.598;2023-02-16T07:09:25;1.20;91.80
10891;DHT22;5498;50.928;11.598;2023-02-16T07:12:27;1.20;92.10
10891;DHT22;5498;50.928;11.598;2023-02-16T07:15:29;1.20;92.10
10891;DHT22;5498;50.928;11.598;2023-02-16T07:18:32;1.30;92.10
10891;DHT22;5498;50.928;11.598;2023-02-16T07:21:35;1.30;92.10
10891;DHT22;5498;50.928;11.598;2023-02-16T07:24:37;1.80;92.10
10891;DHT22;5498;50.928;11.598;2023-02-16T07:27:39;1.80;92.00
10891;DHT22;5498;50.928;11.598;2023-02-16T07:30:41;1.30;92.20
10891;DHT22;5498;50.928;11.598;2023-02-16T07:33:43;1.30;92.50
10891;DHT22;5498;50.928;11.598;2023-02-16T07:36:46;1.50;92.50
10891;DHT22;5498;50.928;11.598;2023-02-16T07:39:48;1.90;92.50
10891;DHT22;5498;50.928;11.598;2023-02-16T07:42:50;1.50;92.20
10891;DHT22;5498;50.928;11.598;2023-02-16T07:45:52;1.20;92.20
10891;DHT22;5498;50.928;11.598;2023-02-16T07:48:54;1.10;92.90
10891;DHT22;5498;50.928;11.598;2023-02-16T07:51:57;1.20;93.30
10891;DHT22;5498;50.928;11.598;2023-02-16T07:54:59;1.20;92.90
10891;DHT22;5498;50.928;11.598;2023-02-16T07:58:01;1.10;93.00
10891;DHT22;5498;50.928;11.598;2023-02-16T08:01:08;1.20;93.20
10891;DHT22;5498;50.928;11.598;2023-02-16T08:04:11;1.10;93.30
10891;DHT22;5498;50.928;11.598;2023-02-16T08:07:17;1.40;93.30
10891;DHT22;5498;50.928;11.598;2023-02-16T08:10:19;1.50;93.20
10891;DHT22;5498;50.928;11.598;2023-02-16T08:13:21;1.70;92.90
10891;DHT22;5498;50.928;11.598;2023-02-16T08:16:24;1.80;92.60
10891;DHT22;5498;50.928;11.598;2023-02-16T08:19:27;2.00;92.60
10891;DHT22;5498;50.928;11.598;2023-02-16T08:22:30;2.20;92.30
10891;DHT22;5498;50.928;11.598;2023-02-16T08:25:32;2.40;92.40
10891;DHT22;5498;50.928;11.598;2023-02-16T08:28:36;2.80;92.20
10891;DHT22;5498;50.928;11.598;2023-02-16T08:31:38;2.80;92.00
10891;DHT22;5498;50.928;11.598;2023-02-16T08:34:40;3.00;91.50
10891;DHT22;5498;50.928;11.598;2023-02-16T08:37:44;3.10;91.30
10891;DHT22;5498;50.928;11.598;2023-02-16T08:40:46;3.20;91.10
10891;DHT22;5498;50.928;11.598;2023-02-16T08:43:49;3.30;91.00
10891;DHT22;5498;50.928;11.598;2023-02-16T08:46:53;3.40;90.70
10891;DHT22;5498;50.928;11.598;2023-02-16T08:49:55;3.50;90.70
10891;DHT22;5498;50.928;11.598;2023-02-16T08:52:58;3.50;90.60
10891;DHT22;5498;50.928;11.598;2023-02-16T08:56:02;3.60;90.60
10891;DHT22;5498;50.928;11.598;2023-02-16T08:59:05;3.60;90.70
10891;DHT22;5498;50.928;11.598;2023-02-16T09:02:08;3.50;90.50
10891;DHT22;5498;50.928;11.598;2023-02-16T09:05:10;3.20;90.80
10891;DHT22;5498;50.928;11.598;2023-02-16T09:08:14;3.40;91.20
10891;DHT22;5498;50.928;11.598;2023-02-16T09:11:18;3.60;91.00
10891;DHT22;5498;50.928;11.598;2023-02-16T09:14:20;3.80;91.00
10891;DHT22;5498;50.928;11.598;2023-02-16T09:17:23;4.00;90.80
10891;DHT22;5498;50.928;11.598;2023-02-16T09:20:26;4.20;90.60
10891;DHT22;5498;50.928;11.598;2023-02-16T09:23:29;4.50;90.50
10891;DHT22;5498;50.928;11.598;2023-02-16T09:26:33;4.70;90.30
10891;DHT22;5498;50.928;11.598;2023-02-16T09:29:37;5.00;90.20
10891;DHT22;5498;50.928;11.598;2023-02-16T09:32:39;5.30;90.00
10891;DHT22;5498;50.928;11.598;2023-02-16T09:35:41;5.60;89.20
10891;DHT22;5498;50.928;11.598;2023-02-16T09:38:45;5.90;89.20
10891;DHT22;5498;50.928;11.598;2023-02-16T09:42:01;6.10;88.70
10891;DHT22;5498;50.928;11.598;2023-02-16T09:45:07;6.40;88.30
10891;DHT22;5498;50.928;11.598;2023-02-16T09:48:21;6.70;87.80
10891;DHT22;5498;50.928;11.598;2023-02-16T09:51:35;6.90;87.20
10891;DHT22;5498;50.928;11.598;2023-02-16T09:54:45;7.20;86.80
10891;DHT22;5498;50.928;11.598;2023-02-16T09:57:56;7.50;86.00
10891;DHT22;5498;50.928;11.598;2023-02-16T10:01:09;7.70;85.30
10891;DHT22;5498;50.928;11.598;2023-02-16T10:04:29;7.90;85.00
10891;DHT22;5498;50.928;11.598;2023-02-16T10:07:45;8.10;84.00
10891;DHT22;5498;50.928;11.598;2023-02-16T10:11:03;8.30;83.30
10891;DHT22;5498;50.928;11.598;2023-02-16T10:14:32;8.50;82.00
10891;DHT22;5498;50.928;11.598;2023-02-16T10:17:41;8.60;81.10
10891;DHT22;5498;50.928;11.598;2023-02-16T10:20:49;8.80;80.30
10891;DHT22;5498;50.928;11.598;2023-02-16T10:23:56;8.80;79.20
10891;DHT22;5498;50.928;11.598;2023-02-16T10:27:05;8.50;78.80
10891;DHT22;5498;50.928;11.598;2023-02-16T10:30:12;8.10;79.60
10891;DHT22;5498;50.928;11.598;2023-02-16T10:33:21;8.10;80.50
10891;DHT22;5498;50.928;11.598;2023-02-16T10:36:37;8.40;80.40
10891;DHT22;5498;50.928;11.598;2023-02-16T10:39:57;8.60;80.10
10891;DHT22;5498;50.928;11.598;2023-02-16T10:43:16;8.60;78.70
10891;DHT22;5498;50.928;11.598;2023-02-16T10:46:23;8.60;78.80
10891;DHT22;5498;50.928;11.598;2023-02-16T10:49:29;8.80;79.10
10891;DHT22;5498;50.928;11.598;2023-02-16T10:52:36;9.10;79.20
10891;DHT22;5498;50.928;11.598;2023-02-16T10:55:39;9.50;79.80
10891;DHT22;5498;50.928;11.598;2023-02-16T10:58:42;9.70;76.60
10891;DHT22;5498;50.928;11.598;2023-02-16T11:01:46;9.90;76.80
10891;DHT22;5498;50.928;11.598;2023-02-16T11:04:51;10.20;77.10
10891;DHT22;5498;50.928;11.598;2023-02-16T11:07:56;10.40;76.80
10891;DHT22;5498;50.928;11.598;2023-02-16T11:11:08;10.70;77.00
10891;DHT22;5498;50.928;11.598;2023-02-16T11:14:21;10.90;75.60
10891;DHT22;5498;50.928;11.598;2023-02-16T11:17:25;11.10;75.20
10891;DHT22;5498;50.928;11.598;2023-02-16T11:20:30;11.30;75.10
10891;DHT22;5498;50.928;11.598;2023-02-16T11:23:34;11.50;75.10
10891;DHT22;5498;50.928;11.598;2023-02-16T11:26:37;11.60;73.20
10891;DHT22;5498;50.928;11.598;2023-02-16T11:29:40;11.80;71.90
10891;DHT22;5498;50.928;11.598;2023-02-16T11:32:42;11.50;70.40
10891;DHT22;5498;50.928;11.598;2023-02-16T11:35:45;11.40;70.60
10891;DHT22;5498;50.928;11.598;2023-02-16T11:39:00;11.70;72.30
10891;DHT22;5498;50.928;11.598;2023-02-16T11:42:06;12.00;72.60
10891;DHT22;5498;50.928;11.598;2023-02-16T11:45:25;12.20;71.90
10891;DHT22;5498;50.928;11.598;2023-02-16T11:48:30;12.40;71.70
10891;DHT22;5498;50.928;11.598;2023-02-16T11:51:33;12.50;68.50
10891;DHT22;5498;50.928;11.598;2023-02-16T11:54:35;12.60;68.30
10891;DHT22;5498;50.928;11.598;2023-02-16T11:57:37;12.70;68.10
10891;DHT22;5498;50.928;11.598;2023-02-16T12:00:45;13.00;67.60
10891;DHT22;5498;50.928;11.598;2023-02-16T12:04:03;13.20;67.30
10891;DHT22;5498;50.928;11.598;2023-02-16T12:07:13;13.40;66.00
10891;DHT22;5498;50.928;11.598;2023-02-16T12:10:23;13.60;65.20
10891;DHT22;5498;50.928;11.598;2023-02-16T12:13:35;14.20;64.70
10891;DHT22;5498;50.928;11.598;2023-02-16T12:16:49;13.90;62.80
10891;DHT22;5498;50.928;11.598;2023-02-16T12:20:09;14.00;62.40
10891;DHT22;5498;50.928;11.598;2023-02-16T12:23:28;14.10;62.30
10891;DHT22;5498;50.928;11.598;2023-02-16T12:26:40;14.20;62.70
10891;DHT22;5498;50.928;11.598;2023-02-16T12:29:53;14.30;62.30
10891;DHT22;5498;50.928;11.598;2023-02-16T12:33:17;14.40;61.30
10891;DHT22;5498;50.928;11.598;2023-02-16T12:36:48;14.40;61.20
10891;DHT22;5498;50.928;11.598;2023-02-16T12:40:00;14.50;62.70
10891;DHT22;5498;50.928;11.598;2023-02-16T12:43:17;14.50;63.10
10891;DHT22;5498;50.928;11.598;2023-02-16T12:46:30;14.60;63.30
10891;DHT22;5498;50.928;11.598;2023-02-16T12:49:43;14.60;63.60
10891;DHT22;5498;50.928;11.598;2023-02-16T12:52:53;14.70;64.20
10891;DHT22;5498;50.928;11.598;2023-02-16T12:56:00;14.60;64.40
10891;DHT22;5498;50.928;11.598;2023-02-16T12:59:12;14.70;64.70
10891;DHT22;5498;50.928;11.598;2023-02-16T13:02:21;14.70;64.80
10891;DHT22;5498;50.928;11.598;2023-02-16T13:05:30;14.60;64.80
10891;DHT22;5498;50.928;11.598;2023-02-16T13:08:37;14.60;64.90
10891;DHT22;5498;50.928;11.598;2023-02-16T13:11:47;14.50;65.00
10891;DHT22;5498;50.928;11.598;2023-02-16T13:14:59;14.50;65.30
10891;DHT22;5498;50.928;11.598;2023-02-16T13:18:05;14.40;65.70
10891;DHT22;5498;50.928;11.598;2023-02-16T13:21:21;14.30;66.60
10891;DHT22;5498;50.928;11.598;2023-02-16T13:24:43;14.20;66.00
10891;DHT22;5498;50.928;11.598;2023-02-16T13:27:57;14.20;66.10
10891;DHT22;5498;50.928;11.598;2023-02-16T13:31:15;14.10;66.10
10891;DHT22;5498;50.928;11.598;2023-02-16T13:34:43;14.10;66.30
10891;DHT22;5498;50.928;11.598;2023-02-16T13:38:08;14.00;66.30
10891;DHT22;5498;50.928;11.598;2023-02-16T13:41:32;14.00;66.00
10891;DHT22;5498;50.928;11.598;2023-02-16T13:44:43;13.90;66.10
10891;DHT22;5498;50.928;11.598;2023-02-16T13:47:47;13.90;66.20
10891;DHT22;5498;50.928;11.598;2023-02-16T13:50:57;13.80;66.40
10891;DHT22;5498;50.928;11.598;2023-02-16T13:54:02;13.80;66.40
10891;DHT22;5498;50.928;11.598;2023-02-16T13:57:10;13.70;66.20
10891;DHT22;5498;50.928;11.598;2023-02-16T14:00:26;13.70;66.30
10891;DHT22;5498;50.928;11.598;2023-02-16T14:03:37;13.70;66.10
10891;DHT22;5498;50.928;11.598;2023-02-16T14:06:41;13.70;66.10
10891;DHT22;5498;50.928;11.598;2023-02-16T14:09:48;13.70;66.00
10891;DHT22;5498;50.928;11.598;2023-02-16T14:12:50;13.70;65.30
10891;DHT22;5498;50.928;11.598;2023-02-16T14:15:54;13.60;64.70
10891;DHT22;5498;50.928;11.598;2023-02-16T14:18:59;13.60;64.40
10891;DHT22;5498;50.928;11.598;2023-02-16T14:22:08;13.60;64.20
10891;DHT22;5498;50.928;11.598;2023-02-16T14:25:34;13.60;62.70
10891;DHT22;5498;50.928;11.598;2023-02-16T14:29:04;13.60;60.80
10891;DHT22;5498;50.928;11.598;2023-02-16T14:32:20;13.60;59.90
10891;DHT22;5498;50.928;11.598;2023-02-16T14:35:28;13.60;59.20
10891;DHT22;5498;50.928;11.598;2023-02-16T14:38:32;13.60;58.60
10891;DHT22;5498;50.928;11.598;2023-02-16T14:41:37;13.50;58.10
10891;DHT22;5498;50.928;11.598;2023-02-16T14:44:54;13.50;58.00
10891;DHT22;5498;50.928;11.598;2023-02-16T14:48:14;13.50;57.90
10891;DHT22;5498;50.928;11.598;2023-02-16T14:51:42;13.50;57.60
10891;DHT22;5498;50.928;11.598;2023-02-16T14:55:21;13.50;57.90
10891;DHT22;5498;50.928;11.598;2023-02-16T14:58:52;13.40;58.10
10891;DHT22;5498;50.928;11.598;2023-02-16T15:01:56;13.40;58.00
10891;DHT22;5498;50.928;11.598;2023-02-16T15:05:14;13.40;58.20
10891;DHT22;5498;50.928;11.598;2023-02-16T15:08:19;13.30;58.20
10891;DHT22;5498;50.928;11.598;2023-02-16T15:11:27;13.20;58.60
10891;DHT22;5498;50.928;11.598;2023-02-16T15:14:34;13.20;59.10
10891;DHT22;5498;50.928;11.598;2023-02-16T15:17:40;13.10;59.20
10891;DHT22;5498;50.928;11.598;2023-02-16T15:20:47;13.10;59.50
10891;DHT22;5498;50.928;11.598;2023-02-16T15:23:52;13.00;59.70
10891;DHT22;5498;50.928;11.598;2023-02-16T15:26:55;12.90;60.00
10891;DHT22;5498;50.928;11.598;2023-02-16T15:30:05;12.90;60.10
10891;DHT22;5498;50.928;11.598;2023-02-16T15:33:26;12.80;61.30
10891;DHT22;5498;50.928;11.598;2023-02-16T15:36:35;12.80;60.90
10891;DHT22;5498;50.928;11.598;2023-02-16T15:39:39;12.70;61.10
10891;DHT22;5498;50.928;11.598;2023-02-16T15:42:42;12.70;61.60
10891;DHT22;5498;50.928;11.598;2023-02-16T15:45:50;12.60;62.20
10891;DHT22;5498;50.928;11.598;2023-02-16T15:48:55;12.50;63.00
10891;DHT22;5498;50.928;11.598;2023-02-16T15:51:58;12.50;63.80
10891;DHT22;5498;50.928;11.598;2023-02-16T15:55:03;12.40;64.50
10891;DHT22;5498;50.928;11.598;2023-02-16T15:58:08;12.30;65.10
10891;DHT22;5498;50.928;11.598;2023-02-16T16:01:19;12.30;65.60
10891;DHT22;5498;50.928;11.598;2023-02-16T16:04:25;12.30;66.10
10891;DHT22;5498;50.928;11.598;2023-02-16T16:07:31;12.20;66.50
10891;DHT22;5498;50.928;11.598;2023-02-16T16:10:36;12.10;67.00
10891;DHT22;5498;50.928;11.598;2023-02-16T16:13:41;12.10;67.20
10891;DHT22;5498;50.928;11.598;2023-02-16T16:16:45;12.00;67.30
10891;DHT22;5498;50.928;11.598;2023-02-16T16:19:47;12.00;67.50
10891;DHT22;5498;50.928;11.598;2023-02-16T16:22:55;11.90;67.70
10891;DHT22;5498;50.928;11.598;2023-02-16T16:25:57;11.90;67.80
10891;DHT22;5498;50.928;11.598;2023-02-16T16:28:59;11.90;67.70
10891;DHT22;5498;50.928;11.598;2023-02-16T16:32:04;11.80;67.90
10891;DHT22;5498;50.928;11.598;2023-02-16T16:35:21;11.80;68.00
10891;DHT22;5498;50.928;11.598;2023-02-16T16:38:37;11.70;67.80
10891;DHT22;5498;50.928;11.598;2023-02-16T16:41:43;11.70;67.50
10891;DHT22;5498;50.928;11.598;2023-02-16T16:44:56;11.60;67.40
10891;DHT22;5498;50.928;11.598;2023-02-16T16:48:07;11.60;66.90
10891;DHT22;5498;50.928;11.598;2023-02-16T16:51:12;11.50;66.80
10891;DHT22;5498;50.928;11.598;2023-02-16T16:54:30;11.40;66.80
10891;DHT22;5498;50.928;11.598;2023-02-16T16:57:33;11.30;67.10
10891;DHT22;5498;50.928;11.598;2023-02-16T17:00:36;11.30;67.10
10891;DHT22;5498;50.928;11.598;2023-02-16T17:03:41;11.20;67.50
10891;DHT22;5498;50.928;11.598;2023-02-16T17:06:43;11.10;67.80
10891;DHT22;5498;50.928;11.598;2023-02-16T17:09:45;11.10;68.20
10891;DHT22;5498;50.928;11.598;2023-02-16T17:12:57;11.00;68.50
10891;DHT22;5498;50.928;11.598;2023-02-16T17:16:02;10.90;69.10
10891;DHT22;5498;50.928;11.598;2023-02-16T17:19:06;10.90;69.50
10891;DHT22;5498;50.928;11.598;2023-02-16T17:22:11;10.90;69.60
10891;DHT22;5498;50.928;11.598;2023-02-16T17:25:13;10.80;70.20
10891;DHT22;5498;50.928;11.598;2023-02-16T17:28:17;10.80;70.70
10891;DHT22;5498;50.928;11.598;2023-02-16T17:31:20;10.70;71.00
10891;DHT22;5498;50.928;11.598;2023-02-16T17:34:23;10.70;71.10
10891;DHT22;5498;50.928;11.598;2023-02-16T17:37:31;10.60;71.30
10891;DHT22;5498;50.928;11.598;2023-02-16T17:40:35;10.60;71.70
10891;DHT22;5498;50.928;11.598;2023-02-16T17:43:38;10.70;71.80
10891;DHT22;5498;50.928;11.598;2023-02-16T17:46:40;10.60;71.90
10891;DHT22;5498;50.928;11.598;2023-02-16T17:49:43;10.60;72.90
10891;DHT22;5498;50.928;11.598;2023-02-16T17:52:47;10.60;72.30
10891;DHT22;5498;50.928;11.598;2023-02-16T17:55:52;10.60;72.90
10891;DHT22;5498;50.928;11.598;2023-02-16T17:58:55;10.60;74.00
10891;DHT22;5498;50.928;11.598;2023-02-16T18:01:57;10.50;74.70
10891;DHT22;5498;50.928;11.598;2023-02-16T18:05:01;10.50;75.70
10891;DHT22;5498;50.928;11.598;2023-02-16T18:08:03;10.40;76.30
10891;DHT22;5498;50.928;11.598;2023-02-16T18:11:05;10.40;77.00
10891;DHT22;5498;50.928;11.598;2023-02-16T18:14:07;10.30;77.50
10891;DHT22;5498;50.928;11.598;2023-02-16T18:17:11;10.30;78.10
10891;DHT22;5498;50.928;11.598;2023-02-16T18:20:15;10.20;79.10
10891;DHT22;5498;50.928;11.598;2023-02-16T18:23:17;10.20;79.30
10891;DHT22;5498;50.928;11.598;2023-02-16T18:26:19;10.10;79.80
10891;DHT22;5498;50.928;11.598;2023-02-16T18:29:21;10.00;79.90
10891;DHT22;5498;50.928;11.598;2023-02-16T18:32:23;9.90;80.00
10891;DHT22;5498;50.928;11.598;2023-02-16T18:35:26;9.90;80.40
10891;DHT22;5498;50.928;11.598;2023-02-16T18:38:28;9.90;81.10
10891;DHT22;5498;50.928;11.598;2023-02-16T18:41:29;9.90;81.70
10891;DHT22;5498;50.928;11.598;2023-02-16T18:44:32;9.80;82.10
10891;DHT22;5498;50.928;11.598;2023-02-16T18:47:34;9.70;82.80
10891;DHT22;5498;50.928;11.598;2023-02-16T18:50:37;9.70;82.80
10891;DHT22;5498;50.928;11.598;2023-02-16T18:53:39;9.60;83.20
10891;DHT22;5498;50.928;11.598;2023-02-16T18:56:41;9.60;83.30
10891;DHT22;5498;50.928;11.598;2023-02-16T18:59:43;9.50;83.40
10891;DHT22;5498;50.928;11.598;2023-02-16T19:02:45;9.50;83.30
10891;DHT22;5498;50.928;11.598;2023-02-16T19:05:48;9.40;83.30
10891;DHT22;5498;50.928;11.598;2023-02-16T19:08:50;9.40;83.30
10891;DHT22;5498;50.928;11.598;2023-02-16T19:11:52;9.40;83.70
10891;DHT22;5498;50.928;11.598;2023-02-16T19:14:54;9.40;83.60
10891;DHT22;5498;50.928;11.598;2023-02-16T19:17:55;9.40;83.60
10891;DHT22;5498;50.928;11.598;2023-02-16T19:21:03;9.30;83.60
10891;DHT22;5498;50.928;11.598;2023-02-16T19:24:06;9.30;83.80
10891;DHT22;5498;50.928;11.598;2023-02-16T19:27:09;9.20;83.70
10891;DHT22;5498;50.928;11.598;2023-02-16T19:30:15;9.20;83.70
10891;DHT22;5498;50.928;11.598;2023-02-16T19:33:20;9.10;83.70
10891;DHT22;5498;50.928;11.598;2023-02-16T19:36:25;9.00;84.00
10891;DHT22;5498;50.928;11.598;2023-02-16T19:39:29;9.00;84.50
10891;DHT22;5498;50.928;11.598;2023-02-16T19:42:31;9.00;84.30
10891;DHT22;5498;50.928;11.598;2023-02-16T19:45:34;8.90;84.60
10891;DHT22;5498;50.928;11.598;2023-02-16T19:48:40;8.90;84.90
10891;DHT22;5498;50.928;11.598;2023-02-16T19:51:43;8.80;84.80